sensor_id;sensor_type;location;lat;lon;timestamp;temperature;humidity
12413;DHT22;13877;18.896;-99.222;2023-03-01T00:01:30;33.80;8.40
12413;DHT22;13877;18.896;-99.222;2023-03-01T00:03:59;33.60;9.70
12413;DHT22;13877;18.896;-99.222;2023-03-01T00:06:27;33.50;10.30
12413;DHT22;13877;18.896;-99.222;2023-03-01T00:08:54;33.20;10.90
12413;DHT22;13877;18.896;-99.222;2023-03-01T00:11:25;32.70;10.90
12413;DHT22;13877;18.896;-99.222;2023-03-01T00:13:55;32.20;11.30
12413;DHT22;13877;18.896;-99.222;2023-03-01T00:16:29;31.70;10.60
12413;DHT22;13877;18.896;-99.222;2023-03-01T00:18:57;31.40;11.20
12413;DHT22;13877;18.896;-99.222;2023-03-01T00:21:25;31.10;11.70
12413;DHT22;13877;18.896;-99.222;2023-03-01T00:23:53;30.80;11.50
12413;DHT22;13877;18.896;-99.222;2023-03-01T00:26:22;30.50;12.60
12413;DHT22;13877;18.896;-99.222;2023-03-01T00:28:51;30.00;12.50
12413;DHT22;13877;18.896;-99.222;2023-03-01T00:31:24;29.50;13.10
12413;DHT22;13877;18.896;-99.222;2023-03-01T00:33:53;28.80;13.90
12413;DHT22;13877;18.896;-99.222;2023-03-01T00:36:32;28.40;14.70
12413;DHT22;13877;18.896;-99.222;2023-03-01T00:39:03;28.10;15.50
12413;DHT22;13877;18.896;-99.222;2023-03-01T00:41:30;27.80;16.00
12413;DHT22;13877;18.896;-99.222;2023-03-01T00:44:04;27.40;16.30
12413;DHT22;13877;18.896;-99.222;2023-03-01T00:46:30;27.10;16.40
12413;DHT22;13877;18.896;-99.222;2023-03-01T00:49:00;26.80;16.70
12413;DHT22;13877;18.896;-99.222;2023-03-01T00:51:29;26.70;16.80
12413;DHT22;13877;18.896;-99.222;2023-03-01T00:53:59;26.50;17.60
12413;DHT22;13877;18.896;-99.222;2023-03-01T00:56:27;26.40;17.10
12413;DHT22;13877;18.896;-99.222;2023-03-01T00:58:54;26.40;17.70
12413;DHT22;13877;18.896;-99.222;2023-03-01T01:01:25;26.20;18.90
12413;DHT22;13877;18.896;-99.222;2023-03-01T01:04:00;26.10;18.90
12413;DHT22;13877;18.896;-99.222;2023-03-01T01:06:31;26.00;19.80
12413;DHT22;13877;18.896;-99.222;2023-03-01T01:09:06;26.10;20.10
12413;DHT22;13877;18.896;-99.222;2023-03-01T01:11:34;26.00;19.80
12413;DHT22;13877;18.896;-99.222;2023-03-01T01:14:05;25.90;19.50
12413;DHT22;13877;18.896;-99.222;2023-03-01T01:16:32;25.70;19.30
12413;DHT22;13877;18.896;-99.222;2023-03-01T01:18:59;25.70;19.80
12413;DHT22;13877;18.896;-99.222;2023-03-01T01:21:27;25.70;20.10
12413;DHT22;13877;18.896;-99.222;2023-03-01T01:23:57;26.10;18.80
12413;DHT22;13877;18.896;-99.222;2023-03-01T01:26:26;26.30;18.50
12413;DHT22;13877;18.896;-99.222;2023-03-01T01:28:54;26.40;18.20
12413;DHT22;13877;18.896;-99.222;2023-03-01T01:31:22;26.40;18.00
12413;DHT22;13877;18.896;-99.222;2023-03-01T01:33:52;26.40;18.20
12413;DHT22;13877;18.896;-99.222;2023-03-01T01:36:19;26.20;18.10
12413;DHT22;13877;18.896;-99.222;2023-03-01T01:38:47;26.30;18.20
12413;DHT22;13877;18.896;-99.222;2023-03-01T01:41:16;26.20;18.40
12413;DHT22;13877;18.896;-99.222;2023-03-01T01:43:47;26.10;18.30
12413;DHT22;13877;18.896;-99.222;2023-03-01T01:46:31;26.10;18.50
12413;DHT22;13877;18.896;-99.222;2023-03-01T01:49:05;25.90;18.80
12413;DHT22;13877;18.896;-99.222;2023-03-01T01:51:40;25.80;18.20
12413;DHT22;13877;18.896;-99.222;2023-03-01T01:54:18;25.70;18.40
12413;DHT22;13877;18.896;-99.222;2023-03-01T01:56:51;25.60;18.50
12413;DHT22;13877;18.896;-99.222;2023-03-01T01:59:22;25.70;18.30
12413;DHT22;13877;18.896;-99.222;2023-03-01T02:01:51;25.70;18.40
12413;DHT22;13877;18.896;-99.222;2023-03-01T02:04:18;25.60;18.40
12413;DHT22;13877;18.896;-99.222;2023-03-01T02:07:01;25.60;18.40
12413;DHT22;13877;18.896;-99.222;2023-03-01T02:09:30;25.60;18.00
12413;DHT22;13877;18.896;-99.222;2023-03-01T02:11:58;25.40;17.90
12413;DHT22;13877;18.896;-99.222;2023-03-01T02:14:26;25.50;17.90
12413;DHT22;13877;18.896;-99.222;2023-03-01T02:16:53;25.50;17.80
12413;DHT22;13877;18.896;-99.222;2023-03-01T02:22:31;25.50;17.70
12413;DHT22;13877;18.896;-99.222;2023-03-01T02:30:15;25.30;17.80
12413;DHT22;13877;18.896;-99.222;2023-03-01T02:32:43;25.10;18.00
12413;DHT22;13877;18.896;-99.222;2023-03-01T02:35:14;25.00;18.00
12413;DHT22;13877;18.896;-99.222;2023-03-01T02:37:44;25.00;18.00
12413;DHT22;13877;18.896;-99.222;2023-03-01T02:40:16;24.90;17.90
12413;DHT22;13877;18.896;-99.222;2023-03-01T02:42:54;25.00;17.70
12413;DHT22;13877;18.896;-99.222;2023-03-01T02:45:24;25.00;18.00
12413;DHT22;13877;18.896;-99.222;2023-03-01T02:47:54;24.90;18.00
12413;DHT22;13877;18.896;-99.222;2023-03-01T02:53:21;24.80;17.90
12413;DHT22;13877;18.896;-99.222;2023-03-01T02:55:50;24.80;17.80
12413;DHT22;13877;18.896;-99.222;2023-03-01T02:58:17;24.90;17.80
12413;DHT22;13877;18.896;-99.222;2023-03-01T03:00:44;24.80;17.90
12413;DHT22;13877;18.896;-99.222;2023-03-01T03:03:20;24.80;17.90
12413;DHT22;13877;18.896;-99.222;2023-03-01T03:05:48;24.80;18.00
12413;DHT22;13877;18.896;-99.222;2023-03-01T03:08:15;24.80;18.00
12413;DHT22;13877;18.896;-99.222;2023-03-01T03:10:51;24.80;18.00
12413;DHT22;13877;18.896;-99.222;2023-03-01T03:13:18;24.80;18.00
12413;DHT22;13877;18.896;-99.222;2023-03-01T03:15:45;24.80;17.90
12413;DHT22;13877;18.896;-99.222;2023-03-01T03:18:15;24.70;18.10
12413;DHT22;13877;18.896;-99.222;2023-03-01T03:20:43;24.60;18.20
12413;DHT22;13877;18.896;-99.222;2023-03-01T03:23:10;24.70;17.90
12413;DHT22;13877;18.896;-99.222;2023-03-01T03:25:37;24.70;17.80
12413;DHT22;13877;18.896;-99.222;2023-03-01T03:28:06;24.80;17.60
12413;DHT22;13877;18.896;-99.222;2023-03-01T03:30:39;24.80;17.60
12413;DHT22;13877;18.896;-99.222;2023-03-01T03:33:07;24.80;17.60
12413;DHT22;13877;18.896;-99.222;2023-03-01T03:35:41;24.90;17.80
12413;DHT22;13877;18.896;-99.222;2023-03-01T03:38:10;24.80;18.40
12413;DHT22;13877;18.896;-99.222;2023-03-01T03:40:48;24.80;18.10
12413;DHT22;13877;18.896;-99.222;2023-03-01T03:43:17;24.80;18.20
12413;DHT22;13877;18.896;-99.222;2023-03-01T03:45:45;24.70;18.30
12413;DHT22;13877;18.896;-99.222;2023-03-01T03:48:12;24.60;18.40
12413;DHT22;13877;18.896;-99.222;2023-03-01T03:50:40;24.60;18.50
12413;DHT22;13877;18.896;-99.222;2023-03-01T03:53:10;24.60;18.50
12413;DHT22;13877;18.896;-99.222;2023-03-01T03:55:38;24.60;18.70
12413;DHT22;13877;18.896;-99.222;2023-03-01T03:58:07;24.50;18.90
12413;DHT22;13877;18.896;-99.222;2023-03-01T04:00:43;24.60;18.90
12413;DHT22;13877;18.896;-99.222;2023-03-01T04:03:12;24.50;18.90
12413;DHT22;13877;18.896;-99.222;2023-03-01T04:05:41;24.50;19.20
12413;DHT22;13877;18.896;-99.222;2023-03-01T04:08:09;24.40;19.20
12413;DHT22;13877;18.896;-99.222;2023-03-01T04:10:38;24.50;19.80
12413;DHT22;13877;18.896;-99.222;2023-03-01T04:13:09;24.50;19.40
12413;DHT22;13877;18.896;-99.222;2023-03-01T04:15:36;24.40;19.50
12413;DHT22;13877;18.896;-99.222;2023-03-01T04:18:04;24.40;19.40
12413;DHT22;13877;18.896;-99.222;2023-03-01T04:20:33;24.40;19.60
12413;DHT22;13877;18.896;-99.222;2023-03-01T04:25:41;24.40;19.60
12413;DHT22;13877;18.896;-99.222;2023-03-01T04:28:09;24.40;19.70
12413;DHT22;13877;18.896;-99.222;2023-03-01T04:30:37;24.30;19.90
12413;DHT22;13877;18.896;-99.222;2023-03-01T04:33:06;23.90;20.50
12413;DHT22;13877;18.896;-99.222;2023-03-01T04:35:34;23.60;21.10
12413;DHT22;13877;18.896;-99.222;2023-03-01T04:38:02;23.20;22.00
12413;DHT22;13877;18.896;-99.222;2023-03-01T04:40:29;23.10;22.00
12413;DHT22;13877;18.896;-99.222;2023-03-01T04:42:56;23.10;22.00
12413;DHT22;13877;18.896;-99.222;2023-03-01T04:45:23;23.00;22.40
12413;DHT22;13877;18.896;-99.222;2023-03-01T04:47:51;22.90;22.80
12413;DHT22;13877;18.896;-99.222;2023-03-01T04:50:24;22.90;22.80
12413;DHT22;13877;18.896;-99.222;2023-03-01T04:52:52;23.00;22.80
12413;DHT22;13877;18.896;-99.222;2023-03-01T04:55:19;23.10;22.70
12413;DHT22;13877;18.896;-99.222;2023-03-01T04:57:46;23.20;22.60
12413;DHT22;13877;18.896;-99.222;2023-03-01T05:00:14;23.50;22.00
12413;DHT22;13877;18.896;-99.222;2023-03-01T05:08:00;23.20;22.70
12413;DHT22;13877;18.896;-99.222;2023-03-01T05:10:29;23.20;22.70
12413;DHT22;13877;18.896;-99.222;2023-03-01T05:12:57;23.20;22.70
12413;DHT22;13877;18.896;-99.222;2023-03-01T05:15:25;23.20;22.80
12413;DHT22;13877;18.896;-99.222;2023-03-01T05:17:57;23.10;23.00
12413;DHT22;13877;18.896;-99.222;2023-03-01T05:20:30;22.90;23.00
12413;DHT22;13877;18.896;-99.222;2023-03-01T05:22:59;22.80;22.90
12413;DHT22;13877;18.896;-99.222;2023-03-01T05:25:26;22.90;22.80
12413;DHT22;13877;18.896;-99.222;2023-03-01T05:27:53;22.90;23.00
12413;DHT22;13877;18.896;-99.222;2023-03-01T05:30:20;23.00;23.10
12413;DHT22;13877;18.896;-99.222;2023-03-01T05:32:50;23.10;23.10
12413;DHT22;13877;18.896;-99.222;2023-03-01T05:35:24;23.20;23.20
12413;DHT22;13877;18.896;-99.222;2023-03-01T05:37:51;23.20;23.10
12413;DHT22;13877;18.896;-99.222;2023-03-01T05:40:21;23.20;23.10
12413;DHT22;13877;18.896;-99.222;2023-03-01T05:42:53;23.00;23.30
12413;DHT22;13877;18.896;-99.222;2023-03-01T05:45:23;23.00;23.50
12413;DHT22;13877;18.896;-99.222;2023-03-01T05:47:51;22.70;24.00
12413;DHT22;13877;18.896;-99.222;2023-03-01T05:50:24;22.60;24.30
12413;DHT22;13877;18.896;-99.222;2023-03-01T05:55:26;22.30;25.10
12413;DHT22;13877;18.896;-99.222;2023-03-01T05:57:53;22.00;25.20
12413;DHT22;13877;18.896;-99.222;2023-03-01T06:00:21;21.90;26.20
12413;DHT22;13877;18.896;-99.222;2023-03-01T06:02:52;21.90;26.30
12413;DHT22;13877;18.896;-99.222;2023-03-01T06:05:19;21.70;26.90
12413;DHT22;13877;18.896;-99.222;2023-03-01T06:07:47;21.50;27.40
12413;DHT22;13877;18.896;-99.222;2023-03-01T06:10:15;21.30;27.80
12413;DHT22;13877;18.896;-99.222;2023-03-01T06:12:43;21.10;27.80
12413;DHT22;13877;18.896;-99.222;2023-03-01T06:15:12;21.30;28.10
12413;DHT22;13877;18.896;-99.222;2023-03-01T06:17:43;21.70;28.10
12413;DHT22;13877;18.896;-99.222;2023-03-01T06:20:19;21.60;28.50
12413;DHT22;13877;18.896;-99.222;2023-03-01T06:22:49;21.30;28.10
12413;DHT22;13877;18.896;-99.222;2023-03-01T06:25:19;21.20;28.40
12413;DHT22;13877;18.896;-99.222;2023-03-01T06:27:47;21.30;27.50
12413;DHT22;13877;18.896;-99.222;2023-03-01T06:30:18;21.60;26.50
12413;DHT22;13877;18.896;-99.222;2023-03-01T06:32:45;21.60;26.80
12413;DHT22;13877;18.896;-99.222;2023-03-01T06:35:14;21.40;27.10
12413;DHT22;13877;18.896;-99.222;2023-03-01T06:37:45;21.40;27.60
12413;DHT22;13877;18.896;-99.222;2023-03-01T06:40:12;21.30;27.60
12413;DHT22;13877;18.896;-99.222;2023-03-01T06:42:41;21.30;28.20
12413;DHT22;13877;18.896;-99.222;2023-03-01T06:45:10;21.20;28.40
12413;DHT22;13877;18.896;-99.222;2023-03-01T06:47:39;21.50;28.40
12413;DHT22;13877;18.896;-99.222;2023-03-01T06:50:06;21.30;29.10
12413;DHT22;13877;18.896;-99.222;2023-03-01T06:52:33;21.10;29.60
12413;DHT22;13877;18.896;-99.222;2023-03-01T06:55:00;20.80;29.70
12413;DHT22;13877;18.896;-99.222;2023-03-01T06:57:28;20.70;29.70
12413;DHT22;13877;18.896;-99.222;2023-03-01T06:59:55;20.70;30.30
12413;DHT22;13877;18.896;-99.222;2023-03-01T07:02:23;20.80;30.10
12413;DHT22;13877;18.896;-99.222;2023-03-01T07:04:50;20.90;29.70
12413;DHT22;13877;18.896;-99.222;2023-03-01T07:07:18;21.20;29.40
12413;DHT22;13877;18.896;-99.222;2023-03-01T07:09:46;21.40;28.40
12413;DHT22;13877;18.896;-99.222;2023-03-01T07:12:15;21.30;28.40
12413;DHT22;13877;18.896;-99.222;2023-03-01T07:14:43;21.20;28.40
12413;DHT22;13877;18.896;-99.222;2023-03-01T07:17:11;20.90;29.70
12413;DHT22;13877;18.896;-99.222;2023-03-01T07:19:38;20.60;30.00
12413;DHT22;13877;18.896;-99.222;2023-03-01T07:22:05;20.40;30.60
12413;DHT22;13877;18.896;-99.222;2023-03-01T07:24:34;20.40;30.00
12413;DHT22;13877;18.896;-99.222;2023-03-01T07:27:02;20.50;29.30
12413;DHT22;13877;18.896;-99.222;2023-03-01T07:29:29;20.50;29.20
12413;DHT22;13877;18.896;-99.222;2023-03-01T07:31:56;20.40;29.00
12413;DHT22;13877;18.896;-99.222;2023-03-01T07:34:23;20.40;29.70
12413;DHT22;13877;18.896;-99.222;2023-03-01T07:36:50;20.50;29.40
12413;DHT22;13877;18.896;-99.222;2023-03-01T07:39:17;20.50;29.70
12413;DHT22;13877;18.896;-99.222;2023-03-01T07:41:44;20.40;29.90
12413;DHT22;13877;18.896;-99.222;2023-03-01T07:44:10;20.60;29.50
12413;DHT22;13877;18.896;-99.222;2023-03-01T07:46:38;20.60;29.10
12413;DHT22;13877;18.896;-99.222;2023-03-01T07:49:06;20.70;28.80
12413;DHT22;13877;18.896;-99.222;2023-03-01T07:51:33;20.90;28.60
12413;DHT22;13877;18.896;-99.222;2023-03-01T07:54:00;20.80;28.40
12413;DHT22;13877;18.896;-99.222;2023-03-01T07:56:27;20.80;28.10
12413;DHT22;13877;18.896;-99.222;2023-03-01T07:58:55;20.90;27.70
12413;DHT22;13877;18.896;-99.222;2023-03-01T08:01:22;20.90;27.80
12413;DHT22;13877;18.896;-99.222;2023-03-01T08:03:50;20.90;28.10
12413;DHT22;13877;18.896;-99.222;2023-03-01T08:06:18;20.90;28.30
12413;DHT22;13877;18.896;-99.222;2023-03-01T08:08:46;20.80;28.30
12413;DHT22;13877;18.896;-99.222;2023-03-01T08:11:14;20.70;28.60
12413;DHT22;13877;18.896;-99.222;2023-03-01T08:13:42;20.70;28.70
12413;DHT22;13877;18.896;-99.222;2023-03-01T08:16:14;20.70;28.60
12413;DHT22;13877;18.896;-99.222;2023-03-01T08:18:41;20.60;28.50
12413;DHT22;13877;18.896;-99.222;2023-03-01T08:21:11;20.60;28.60
12413;DHT22;13877;18.896;-99.222;2023-03-01T08:23:40;20.50;28.80
12413;DHT22;13877;18.896;-99.222;2023-03-01T08:26:18;20.60;29.00
12413;DHT22;13877;18.896;-99.222;2023-03-01T08:28:47;20.50;29.10
12413;DHT22;13877;18.896;-99.222;2023-03-01T08:31:22;20.40;29.30
12413;DHT22;13877;18.896;-99.222;2023-03-01T08:33:51;20.40;29.60
12413;DHT22;13877;18.896;-99.222;2023-03-01T08:36:26;20.30;29.70
12413;DHT22;13877;18.896;-99.222;2023-03-01T08:38:54;20.50;29.90
12413;DHT22;13877;18.896;-99.222;2023-03-01T08:41:21;20.50;30.00
12413;DHT22;13877;18.896;-99.222;2023-03-01T08:43:49;20.60;30.20
12413;DHT22;13877;18.896;-99.222;2023-03-01T08:46:16;20.60;30.40
12413;DHT22;13877;18.896;-99.222;2023-03-01T08:48:43;20.50;30.70
12413;DHT22;13877;18.896;-99.222;2023-03-01T08:51:18;20.40;31.70
12413;DHT22;13877;18.896;-99.222;2023-03-01T08:53:46;20.30;31.60
12413;DHT22;13877;18.896;-99.222;2023-03-01T08:56:13;20.10;32.60
12413;DHT22;13877;18.896;-99.222;2023-03-01T08:58:47;20.10;33.30
12413;DHT22;13877;18.896;-99.222;2023-03-01T09:01:17;20.10;33.00
12413;DHT22;13877;18.896;-99.222;2023-03-01T09:03:44;20.10;32.80
12413;DHT22;13877;18.896;-99.222;2023-03-01T09:06:12;20.00;33.20
12413;DHT22;13877;18.896;-99.222;2023-03-01T09:08:45;20.20;33.00
12413;DHT22;13877;18.896;-99.222;2023-03-01T09:11:17;20.30;32.90
12413;DHT22;13877;18.896;-99.222;2023-03-01T09:13:46;20.00;33.20
12413;DHT22;13877;18.896;-99.222;2023-03-01T09:16:15;19.90;33.80
12413;DHT22;13877;18.896;-99.222;2023-03-01T09:18:44;19.80;34.00
12413;DHT22;13877;18.896;-99.222;2023-03-01T09:21:14;19.80;34.40
12413;DHT22;13877;18.896;-99.222;2023-03-01T09:23:43;19.80;34.80
12413;DHT22;13877;18.896;-99.222;2023-03-01T09:26:14;19.80;34.60
12413;DHT22;13877;18.896;-99.222;2023-03-01T09:28:43;19.90;34.30
12413;DHT22;13877;18.896;-99.222;2023-03-01T09:31:14;20.00;34.80
12413;DHT22;13877;18.896;-99.222;2023-03-01T09:33:42;19.90;34.90
12413;DHT22;13877;18.896;-99.222;2023-03-01T09:36:17;19.70;35.00
12413;DHT22;13877;18.896;-99.222;2023-03-01T09:38:45;19.60;35.80
12413;DHT22;13877;18.896;-99.222;2023-03-01T09:46:52;19.70;35.80
12413;DHT22;13877;18.896;-99.222;2023-03-01T09:49:28;19.70;35.50
12413;DHT22;13877;18.896;-99.222;2023-03-01T09:54:54;19.50;37.20
12413;DHT22;13877;18.896;-99.222;2023-03-01T10:00:13;19.20;37.20
12413;DHT22;13877;18.896;-99.222;2023-03-01T10:05:38;18.70;37.50
12413;DHT22;13877;18.896;-99.222;2023-03-01T10:10:38;18.80;38.10
12413;DHT22;13877;18.896;-99.222;2023-03-01T10:13:23;18.70;38.30
12413;DHT22;13877;18.896;-99.222;2023-03-01T10:16:01;18.70;38.40
12413;DHT22;13877;18.896;-99.222;2023-03-01T10:18:32;18.50;39.00
12413;DHT22;13877;18.896;-99.222;2023-03-01T10:23:37;18.40;39.40
12413;DHT22;13877;18.896;-99.222;2023-03-01T10:31:19;18.30;39.90
12413;DHT22;13877;18.896;-99.222;2023-03-01T10:33:49;18.30;39.90
12413;DHT22;13877;18.896;-99.222;2023-03-01T10:36:22;18.40;38.90
12413;DHT22;13877;18.896;-99.222;2023-03-01T10:38:52;18.50;38.70
12413;DHT22;13877;18.896;-99.222;2023-03-01T10:41:21;18.60;38.00
12413;DHT22;13877;18.896;-99.222;2023-03-01T10:43:58;18.60;37.90
12413;DHT22;13877;18.896;-99.222;2023-03-01T10:46:37;18.60;38.20
12413;DHT22;13877;18.896;-99.222;2023-03-01T10:49:22;18.50;38.10
12413;DHT22;13877;18.896;-99.222;2023-03-01T10:51:50;18.60;37.90
12413;DHT22;13877;18.896;-99.222;2023-03-01T10:54:35;18.50;38.50
12413;DHT22;13877;18.896;-99.222;2023-03-01T10:57:05;18.50;39.20
12413;DHT22;13877;18.896;-99.222;2023-03-01T10:59:34;18.30;39.10
12413;DHT22;13877;18.896;-99.222;2023-03-01T11:02:16;18.20;40.60
12413;DHT22;13877;18.896;-99.222;2023-03-01T11:05:02;18.30;41.20
12413;DHT22;13877;18.896;-99.222;2023-03-01T11:07:52;18.50;41.20
12413;DHT22;13877;18.896;-99.222;2023-03-01T11:10:23;18.60;41.30
12413;DHT22;13877;18.896;-99.222;2023-03-01T11:12:52;18.70;41.60
12413;DHT22;13877;18.896;-99.222;2023-03-01T11:15:27;18.70;41.50
12413;DHT22;13877;18.896;-99.222;2023-03-01T11:17:56;18.70;40.90
12413;DHT22;13877;18.896;-99.222;2023-03-01T11:20:35;18.70;40.40
12413;DHT22;13877;18.896;-99.222;2023-03-01T11:23:14;18.80;39.40
12413;DHT22;13877;18.896;-99.222;2023-03-01T11:26:02;18.90;37.80
12413;DHT22;13877;18.896;-99.222;2023-03-01T11:28:33;18.90;37.20
12413;DHT22;13877;18.896;-99.222;2023-03-01T11:31:10;18.80;36.80
12413;DHT22;13877;18.896;-99.222;2023-03-01T11:33:49;18.80;36.50
12413;DHT22;13877;18.896;-99.222;2023-03-01T11:41:43;18.90;35.70
12413;DHT22;13877;18.896;-99.222;2023-03-01T11:44:28;18.80;35.00
12413;DHT22;13877;18.896;-99.222;2023-03-01T11:50:15;18.80;35.30
12413;DHT22;13877;18.896;-99.222;2023-03-01T11:53:15;18.80;35.10
12413;DHT22;13877;18.896;-99.222;2023-03-01T12:07:01;18.40;36.10
12413;DHT22;13877;18.896;-99.222;2023-03-01T12:21:24;18.30;37.50
12413;DHT22;13877;18.896;-99.222;2023-03-01T12:26:33;18.30;37.50
12413;DHT22;13877;18.896;-99.222;2023-03-01T12:49:26;18.30;37.60
12413;DHT22;13877;18.896;-99.222;2023-03-01T12:52:09;18.30;37.70
12413;DHT22;13877;18.896;-99.222;2023-03-01T12:54:37;18.20;37.90
12413;DHT22;13877;18.896;-99.222;2023-03-01T12:57:28;18.20;38.30
12413;DHT22;13877;18.896;-99.222;2023-03-01T13:00:06;18.30;38.20
12413;DHT22;13877;18.896;-99.222;2023-03-01T13:02:45;18.30;38.40
12413;DHT22;13877;18.896;-99.222;2023-03-01T13:05:27;18.10;38.50
12413;DHT22;13877;18.896;-99.222;2023-03-01T13:08:09;18.00;38.60
12413;DHT22;13877;18.896;-99.222;2023-03-01T13:11:03;18.10;38.30
12413;DHT22;13877;18.896;-99.222;2023-03-01T13:13:31;18.20;38.50
12413;DHT22;13877;18.896;-99.222;2023-03-01T13:16:38;18.40;36.90
12413;DHT22;13877;18.896;-99.222;2023-03-01T13:19:29;18.60;36.90
12413;DHT22;13877;18.896;-99.222;2023-03-01T13:21:57;18.70;37.30
12413;DHT22;13877;18.896;-99.222;2023-03-01T13:24:39;18.60;36.60
12413;DHT22;13877;18.896;-99.222;2023-03-01T13:29:49;18.90;36.90
12413;DHT22;13877;18.896;-99.222;2023-03-01T13:32:27;18.80;37.10
12413;DHT22;13877;18.896;-99.222;2023-03-01T13:35:40;18.70;37.80
12413;DHT22;13877;18.896;-99.222;2023-03-01T13:37:51;18.80;38.40
12413;DHT22;13877;18.896;-99.222;2023-03-01T13:42:47;18.80;38.80
12413;DHT22;13877;18.896;-99.222;2023-03-01T13:45:21;18.70;39.10
12413;DHT22;13877;18.896;-99.222;2023-03-01T13:48:30;18.80;38.80
12413;DHT22;13877;18.896;-99.222;2023-03-01T13:51:11;19.00;39.20
12413;DHT22;13877;18.896;-99.222;2023-03-01T13:53:46;19.30;39.00
12413;DHT22;13877;18.896;-99.222;2023-03-01T13:56:36;19.60;37.40
12413;DHT22;13877;18.896;-99.222;2023-03-01T13:59:12;19.90;37.50
12413;DHT22;13877;18.896;-99.222;2023-03-01T14:01:41;20.30;37.00
12413;DHT22;13877;18.896;-99.222;2023-03-01T14:04:32;20.70;36.60
12413;DHT22;13877;18.896;-99.222;2023-03-01T14:07:22;21.00;36.10
12413;DHT22;13877;18.896;-99.222;2023-03-01T14:10:03;21.50;36.00
12413;DHT22;13877;18.896;-99.222;2023-03-01T14:15:36;22.20;35.70
12413;DHT22;13877;18.896;-99.222;2023-03-01T14:18:10;22.30;36.50
12413;DHT22;13877;18.896;-99.222;2023-03-01T14:20:45;22.70;37.10
12413;DHT22;13877;18.896;-99.222;2023-03-01T14:23:22;22.50;39.50
12413;DHT22;13877;18.896;-99.222;2023-03-01T14:25:55;22.60;39.40
12413;DHT22;13877;18.896;-99.222;2023-03-01T14:28:32;22.90;39.20
12413;DHT22;13877;18.896;-99.222;2023-03-01T14:31:01;22.90;39.70
12413;DHT22;13877;18.896;-99.222;2023-03-01T14:33:32;23.00;39.90
12413;DHT22;13877;18.896;-99.222;2023-03-01T14:36:05;23.20;40.50
12413;DHT22;13877;18.896;-99.222;2023-03-01T14:38:45;23.40;39.80
12413;DHT22;13877;18.896;-99.222;2023-03-01T14:41:15;23.60;40.20
12413;DHT22;13877;18.896;-99.222;2023-03-01T14:43:52;23.90;40.30
12413;DHT22;13877;18.896;-99.222;2023-03-01T14:46:40;24.30;39.50
12413;DHT22;13877;18.896;-99.222;2023-03-01T14:49:12;24.20;39.80
12413;DHT22;13877;18.896;-99.222;2023-03-01T14:51:42;24.70;39.90
12413;DHT22;13877;18.896;-99.222;2023-03-01T14:54:29;24.40;39.80
12413;DHT22;13877;18.896;-99.222;2023-03-01T14:57:01;24.20;40.90
12413;DHT22;13877;18.896;-99.222;2023-03-01T14:59:28;24.30;40.70
12413;DHT22;13877;18.896;-99.222;2023-03-01T15:01:58;24.00;41.30
12413;DHT22;13877;18.896;-99.222;2023-03-01T15:04:27;23.90;41.70
12413;DHT22;13877;18.896;-99.222;2023-03-01T15:06:56;23.90;42.20
12413;DHT22;13877;18.896;-99.222;2023-03-01T15:09:33;24.00;42.20
12413;DHT22;13877;18.896;-99.222;2023-03-01T15:12:39;24.00;42.40
12413;DHT22;13877;18.896;-99.222;2023-03-01T15:18:02;23.90;41.90
12413;DHT22;13877;18.896;-99.222;2023-03-01T15:20:33;24.00;41.40
12413;DHT22;13877;18.896;-99.222;2023-03-01T15:23:03;23.90;42.00
12413;DHT22;13877;18.896;-99.222;2023-03-01T15:25:32;23.80;42.30
12413;DHT22;13877;18.896;-99.222;2023-03-01T15:28:01;23.90;42.50
12413;DHT22;13877;18.896;-99.222;2023-03-01T15:30:36;23.80;42.30
12413;DHT22;13877;18.896;-99.222;2023-03-01T15:33:28;23.90;42.80
12413;DHT22;13877;18.896;-99.222;2023-03-01T15:35:58;24.20;41.90
12413;DHT22;13877;18.896;-99.222;2023-03-01T15:38:33;24.60;40.20
12413;DHT22;13877;18.896;-99.222;2023-03-01T15:41:29;25.00;39.10
12413;DHT22;13877;18.896;-99.222;2023-03-01T15:43:54;25.20;39.20
12413;DHT22;13877;18.896;-99.222;2023-03-01T15:46:45;26.30;36.90
12413;DHT22;13877;18.896;-99.222;2023-03-01T15:49:43;26.80;36.20
12413;DHT22;13877;18.896;-99.222;2023-03-01T15:55:01;26.70;36.60
12413;DHT22;13877;18.896;-99.222;2023-03-01T15:57:29;26.70;36.60
12413;DHT22;13877;18.896;-99.222;2023-03-01T15:59:56;27.20;35.70
12413;DHT22;13877;18.896;-99.222;2023-03-01T16:02:24;27.10;36.00
12413;DHT22;13877;18.896;-99.222;2023-03-01T16:04:51;28.10;34.40
12413;DHT22;13877;18.896;-99.222;2023-03-01T16:07:20;28.30;34.20
12413;DHT22;13877;18.896;-99.222;2023-03-01T16:09:47;27.90;35.20
12413;DHT22;13877;18.896;-99.222;2023-03-01T16:12:15;27.10;36.00
12413;DHT22;13877;18.896;-99.222;2023-03-01T16:14:43;27.00;36.20
12413;DHT22;13877;18.896;-99.222;2023-03-01T16:17:10;27.20;35.10
12413;DHT22;13877;18.896;-99.222;2023-03-01T16:19:40;27.40;35.50
12413;DHT22;13877;18.896;-99.222;2023-03-01T16:22:09;27.10;34.70
12413;DHT22;13877;18.896;-99.222;2023-03-01T16:24:37;27.70;35.00
12413;DHT22;13877;18.896;-99.222;2023-03-01T16:27:03;28.60;32.70
12413;DHT22;13877;18.896;-99.222;2023-03-01T16:29:31;28.70;32.20
12413;DHT22;13877;18.896;-99.222;2023-03-01T16:32:01;28.40;33.50
12413;DHT22;13877;18.896;-99.222;2023-03-01T16:34:28;28.10;34.00
12413;DHT22;13877;18.896;-99.222;2023-03-01T16:36:55;28.40;33.40
12413;DHT22;13877;18.896;-99.222;2023-03-01T16:39:22;27.60;33.80
12413;DHT22;13877;18.896;-99.222;2023-03-01T16:41:49;27.80;34.70
12413;DHT22;13877;18.896;-99.222;2023-03-01T16:44:16;28.80;33.10
12413;DHT22;13877;18.896;-99.222;2023-03-01T16:46:43;28.20;34.00
12413;DHT22;13877;18.896;-99.222;2023-03-01T16:49:10;28.80;32.80
12413;DHT22;13877;18.896;-99.222;2023-03-01T16:51:37;28.60;33.20
12413;DHT22;13877;18.896;-99.222;2023-03-01T16:54:04;28.00;33.30
12413;DHT22;13877;18.896;-99.222;2023-03-01T16:56:31;28.10;34.50
12413;DHT22;13877;18.896;-99.222;2023-03-01T16:59:01;28.10;33.50
12413;DHT22;13877;18.896;-99.222;2023-03-01T17:01:28;28.40;33.50
12413;DHT22;13877;18.896;-99.222;2023-03-01T17:04:12;28.40;32.90
12413;DHT22;13877;18.896;-99.222;2023-03-01T17:06:42;28.70;33.00
12413;DHT22;13877;18.896;-99.222;2023-03-01T17:09:12;28.90;33.10
12413;DHT22;13877;18.896;-99.222;2023-03-01T17:11:39;29.10;32.70
12413;DHT22;13877;18.896;-99.222;2023-03-01T17:14:07;28.90;32.40
12413;DHT22;13877;18.896;-99.222;2023-03-01T17:16:34;30.00;32.00
12413;DHT22;13877;18.896;-99.222;2023-03-01T17:19:01;29.50;31.70
12413;DHT22;13877;18.896;-99.222;2023-03-01T17:21:28;30.50;30.30
12413;DHT22;13877;18.896;-99.222;2023-03-01T17:23:56;30.30;31.30